createdAt,value
2023-01-13T00:01:30.672Z,0.20
2023-01-13T00:04:01.204Z,0.10
2023-01-13T00:06:29.789Z,0.17
2023-01-13T00:08:58.299Z,0.23
2023-01-13T00:11:27.797Z,0.10
2023-01-13T00:13:57.657Z,0.10
2023-01-13T00:16:25.701Z,0.10
2023-01-13T00:18:53.695Z,0.20
2023-01-13T00:21:23.417Z,0.10
2023-01-13T00:23:54.283Z,0.10
2023-01-13T00:26:24.843Z,0.20
2023-01-13T00:28:57.412Z,0.03
2023-01-13T00:31:27.916Z,0.10
2023-01-13T00:33:58.801Z,0.10
2023-01-13T00:36:27.717Z,0.00
2023-01-13T00:38:55.758Z,0.10
2023-01-13T00:41:26.339Z,0.10
2023-01-13T00:43:53.870Z,0.20
2023-01-13T00:46:23.628Z,0.07
2023-01-13T00:48:53.488Z,0.28
2023-01-13T00:51:23.631Z,0.10
2023-01-13T00:53:53.523Z,0.10
2023-01-13T00:56:39.298Z,0.10
2023-01-13T00:59:08.686Z,0.20
2023-01-13T01:01:36.889Z,0.10
2023-01-13T01:04:06.726Z,0.17
2023-01-13T01:06:35.176Z,0.10
2023-01-13T01:09:03.846Z,0.13
2023-01-13T01:11:33.627Z,0.10
2023-01-13T01:14:04.048Z,0.10
2023-01-13T01:16:35.130Z,0.17
2023-01-13T01:19:04.223Z,0.30
2023-01-13T01:21:33.819Z,0.10
2023-01-13T01:24:04.195Z,0.10
2023-01-13T01:26:33.724Z,0.30
2023-01-13T01:29:02.857Z,0.20
2023-01-13T01:31:33.577Z,0.43
2023-01-13T01:34:05.235Z,0.25
2023-01-13T01:36:35.661Z,0.40
2023-01-13T01:39:04.170Z,0.15
2023-01-13T01:41:34.198Z,0.28
2023-01-13T01:44:07.409Z,0.30
2023-01-13T01:46:38.368Z,0.30
2023-01-13T01:49:12.687Z,0.33
2023-01-13T01:51:46.561Z,0.30
2023-01-13T01:54:19.231Z,0.20
2023-01-13T01:56:48.746Z,0.30
2023-01-13T01:59:17.582Z,0.43
2023-01-13T02:01:46.279Z,0.10
2023-01-13T02:04:17.647Z,0.40
2023-01-13T02:06:49.252Z,0.20
2023-01-13T02:09:17.191Z,0.30
2023-01-13T02:12:02.764Z,0.30
2023-01-13T02:14:32.610Z,0.20
2023-01-13T02:17:16.844Z,0.10
2023-01-13T02:20:25.830Z,0.20
2023-01-13T02:23:41.361Z,0.20
2023-01-13T02:26:33.986Z,0.10
2023-01-13T02:29:31.488Z,0.10
2023-01-13T02:32:07.984Z,0.20
2023-01-13T02:34:41.587Z,0.10
2023-01-13T02:37:15.972Z,0.38
2023-01-13T02:39:54.862Z,0.10
2023-01-13T02:42:44.779Z,0.00
2023-01-13T02:45:17.505Z,0.10
2023-01-13T02:47:50.426Z,0.10
2023-01-13T02:50:20.976Z,0.20
2023-01-13T02:52:53.112Z,0.20
2023-01-13T02:55:26.907Z,0.20
2023-01-13T02:57:56.789Z,0.13
2023-01-13T03:00:25.113Z,0.30
2023-01-13T03:02:54.559Z,0.17
2023-01-13T03:05:22.595Z,0.20
2023-01-13T03:08:03.292Z,0.10
2023-01-13T03:10:47.463Z,0.10
2023-01-13T03:13:47.463Z,0.20
2023-01-13T03:16:24.715Z,0.00
2023-01-13T03:19:02.926Z,0.10
2023-01-13T03:21:37.483Z,0.10
2023-01-13T03:24:10.119Z,0.20
2023-01-13T03:26:42.404Z,0.22
2023-01-13T03:29:16.360Z,0.20
2023-01-13T03:31:52.616Z,0.00
2023-01-13T03:34:26.364Z,0.27
2023-01-13T03:36:57.059Z,0.10
2023-01-13T03:39:30.715Z,0.15
2023-01-13T03:42:01.189Z,0.10
2023-01-13T03:44:33.845Z,0.25
2023-01-13T03:47:12.742Z,0.10
2023-01-13T03:49:48.826Z,0.20
2023-01-13T03:52:23.546Z,0.28
2023-01-13T03:54:54.903Z,0.30
2023-01-13T03:57:27.549Z,0.10
2023-01-13T03:59:58.880Z,0.30
2023-01-13T04:02:37.703Z,0.75
2023-01-13T04:05:10.135Z,0.20
2023-01-13T04:07:53.212Z,0.50
2023-01-13T04:10:27.258Z,0.17
2023-01-13T04:13:04.348Z,0.10
2023-01-13T04:15:35.914Z,0.40
2023-01-13T04:18:11.458Z,0.10
2023-01-13T04:20:42.076Z,0.20
2023-01-13T04:23:11.191Z,0.10
2023-01-13T04:25:39.380Z,0.10
2023-01-13T04:28:07.874Z,0.10
2023-01-13T04:30:36.476Z,0.20
2023-01-13T04:33:05.446Z,0.15
2023-01-13T04:35:33.857Z,0.10
2023-01-13T04:38:04.614Z,0.20
2023-01-13T04:40:32.623Z,0.10
2023-01-13T04:43:00.753Z,0.15
2023-01-13T04:45:29.235Z,0.13
2023-01-13T04:47:57.337Z,0.03
2023-01-13T04:50:26.587Z,0.10
2023-01-13T04:52:56.240Z,0.10
2023-01-13T04:55:26.525Z,0.20
2023-01-13T04:57:54.544Z,0.10
2023-01-13T05:00:24.094Z,0.20
2023-01-13T05:02:52.780Z,0.20
2023-01-13T05:05:20.675Z,0.30
2023-01-13T05:07:48.872Z,0.30
2023-01-13T05:10:17.283Z,0.20
2023-01-13T05:13:04.721Z,0.20
2023-01-13T05:15:50.267Z,0.07
2023-01-13T05:18:19.354Z,0.10
2023-01-13T05:20:47.276Z,0.30
2023-01-13T05:23:32.622Z,0.20
2023-01-13T05:26:00.469Z,0.30
2023-01-13T05:28:32.578Z,0.20
2023-01-13T05:31:00.485Z,0.30
2023-01-13T05:33:28.300Z,0.20
2023-01-13T05:35:56.326Z,0.20
2023-01-13T05:38:24.134Z,0.20
2023-01-13T05:41:09.714Z,0.10
2023-01-13T05:43:39.068Z,0.10
2023-01-13T05:46:09.135Z,0.10
2023-01-13T05:48:39.405Z,0.17
2023-01-13T05:51:10.005Z,0.20
2023-01-13T05:53:40.936Z,0.20
2023-01-13T05:56:10.063Z,0.10
2023-01-13T05:58:39.298Z,0.30
2023-01-13T06:01:09.233Z,0.28
2023-01-13T06:03:37.596Z,0.50
2023-01-13T06:06:09.219Z,0.10
2023-01-13T06:08:39.559Z,0.30
2023-01-13T06:11:07.724Z,0.40
2023-01-13T06:13:35.747Z,0.30
2023-01-13T06:16:05.267Z,0.75
2023-01-13T06:18:33.287Z,0.30
2023-01-13T06:21:01.123Z,0.50
2023-01-13T06:23:29.437Z,3.63
2023-01-13T06:26:03.667Z,1.65
2023-01-13T06:28:33.365Z,1.27
2023-01-13T06:31:07.632Z,2.77
2023-01-13T06:33:39.123Z,1.60
2023-01-13T06:36:11.410Z,1.40
2023-01-13T06:38:42.257Z,0.90
2023-01-13T06:41:10.345Z,0.77
2023-01-13T06:43:38.482Z,0.83
2023-01-13T06:46:07.968Z,1.00
2023-01-13T06:48:36.283Z,0.80
2023-01-13T06:51:04.300Z,0.80
2023-01-13T06:53:32.464Z,0.47
2023-01-13T06:56:00.314Z,0.50
2023-01-13T06:58:28.178Z,1.35
2023-01-13T07:00:56.370Z,1.00
2023-01-13T07:03:25.558Z,0.75
2023-01-13T07:05:54.961Z,0.50
2023-01-13T07:08:23.373Z,0.23
2023-01-13T07:10:53.047Z,0.30
2023-01-13T07:13:39.251Z,0.25
2023-01-13T07:16:09.691Z,0.30
2023-01-13T07:18:39.349Z,0.65
2023-01-13T07:21:09.868Z,2.40
2023-01-13T07:23:39.939Z,3.25
2023-01-13T07:26:08.689Z,1.20
2023-01-13T07:28:37.015Z,0.30
2023-01-13T07:31:05.138Z,0.32
2023-01-13T07:33:33.451Z,1.20
2023-01-13T07:36:04.511Z,0.40
2023-01-13T07:38:33.455Z,0.32
2023-01-13T07:41:22.968Z,0.30
2023-01-13T07:43:50.126Z,0.40
2023-01-13T07:46:18.521Z,0.40
2023-01-13T07:48:48.351Z,0.30
2023-01-13T07:51:17.608Z,0.40
2023-01-13T07:53:45.426Z,0.30
2023-01-13T07:56:13.579Z,0.30
2023-01-13T07:58:41.441Z,0.47
2023-01-13T08:01:09.940Z,0.40
2023-01-13T08:03:37.932Z,0.50
2023-01-13T08:06:06.213Z,0.40
2023-01-13T08:08:35.681Z,0.40
2023-01-13T08:11:05.653Z,0.53
2023-01-13T08:13:33.768Z,0.50
2023-01-13T08:16:03.526Z,0.68
2023-01-13T08:18:34.845Z,0.35
2023-01-13T08:21:04.478Z,0.60
2023-01-13T08:23:32.186Z,0.30
2023-01-13T08:26:03.467Z,0.40
2023-01-13T08:28:32.349Z,0.30
2023-01-13T08:31:01.265Z,0.40
2023-01-13T08:33:30.281Z,0.40
2023-01-13T08:35:59.032Z,0.40
2023-01-13T08:38:27.137Z,0.55
2023-01-13T08:40:54.771Z,0.77
2023-01-13T08:43:24.144Z,0.60
2023-01-13T08:45:59.194Z,0.40
2023-01-13T08:48:29.766Z,0.60
2023-01-13T08:51:03.400Z,0.80
2023-01-13T08:53:31.443Z,0.30
2023-01-13T08:55:59.386Z,0.40
2023-01-13T08:58:28.606Z,0.80
2023-01-13T09:00:56.294Z,0.60
2023-01-13T09:03:24.448Z,0.50
2023-01-13T09:05:52.339Z,0.30
2023-01-13T09:08:20.447Z,0.73
2023-01-13T09:10:48.291Z,5.03
2023-01-13T09:13:15.616Z,0.60
2023-01-13T09:15:47.339Z,0.30
2023-01-13T09:18:15.705Z,0.22
2023-01-13T09:20:44.589Z,0.73
2023-01-13T09:23:12.498Z,0.50
2023-01-13T09:25:40.713Z,0.40
2023-01-13T09:28:09.163Z,1.23
2023-01-13T09:30:38.459Z,0.80
2023-01-13T09:33:24.997Z,0.20
2023-01-13T09:35:53.151Z,0.82
2023-01-13T09:38:21.449Z,0.80
2023-01-13T09:40:51.158Z,0.70
2023-01-13T09:43:41.798Z,0.40
2023-01-13T09:46:31.570Z,0.35
2023-01-13T09:49:03.737Z,0.73
2023-01-13T09:51:35.389Z,0.73
2023-01-13T09:54:10.162Z,0.30
2023-01-13T09:56:38.136Z,0.20
2023-01-13T09:59:06.505Z,0.28
2023-01-13T10:01:42.855Z,0.20
2023-01-13T10:04:15.317Z,0.13
2023-01-13T10:06:45.475Z,0.25
2023-01-13T10:09:18.613Z,0.15
2023-01-13T10:12:09.673Z,0.10
2023-01-13T10:14:43.905Z,0.20
2023-01-13T10:17:20.059Z,1.00
2023-01-13T10:19:53.476Z,0.30
2023-01-13T10:22:48.462Z,0.30
2023-01-13T10:25:27.020Z,0.40
2023-01-13T10:27:56.987Z,0.50
2023-01-13T10:30:31.438Z,0.30
2023-01-13T10:33:01.711Z,0.10
2023-01-13T10:35:52.135Z,0.20
2023-01-13T10:38:22.073Z,0.30
2023-01-13T10:40:51.599Z,0.28
2023-01-13T10:43:19.523Z,0.20
2023-01-13T10:45:59.138Z,0.80
2023-01-13T10:48:35.266Z,0.20
2023-01-13T10:51:29.153Z,0.20
2023-01-13T10:54:02.852Z,0.35
2023-01-13T10:56:33.774Z,0.20
2023-01-13T10:59:23.911Z,0.20
2023-01-13T11:02:03.827Z,0.10
2023-01-13T11:04:36.179Z,0.00
2023-01-13T11:07:07.125Z,0.10
2023-01-13T11:09:35.026Z,0.10
2023-01-13T11:12:03.357Z,0.20
2023-01-13T11:14:40.549Z,0.10
2023-01-13T11:17:18.016Z,0.10
2023-01-13T11:19:52.630Z,0.00
2023-01-13T11:22:28.842Z,0.60
2023-01-13T11:25:01.428Z,0.57
2023-01-13T11:27:40.917Z,0.25
2023-01-13T11:30:23.445Z,0.15
2023-01-13T11:33:12.185Z,0.20
2023-01-13T11:35:44.795Z,0.10
2023-01-13T11:38:28.639Z,0.20
2023-01-13T11:41:02.109Z,0.20
2023-01-13T11:43:35.817Z,0.20
2023-01-13T11:46:04.098Z,0.40
2023-01-13T11:48:37.142Z,0.23
2023-01-13T11:51:12.004Z,1.23
2023-01-13T11:53:59.351Z,2.45
2023-01-13T11:56:46.675Z,1.55
2023-01-13T11:59:34.703Z,2.75
2023-01-13T12:02:17.456Z,2.33
2023-01-13T12:04:58.403Z,2.47
2023-01-13T12:07:41.655Z,4.15
2023-01-13T12:10:18.028Z,3.92
2023-01-13T12:12:54.359Z,1.60
2023-01-13T12:15:51.571Z,1.43
2023-01-13T12:18:35.622Z,0.50
2023-01-13T12:21:19.474Z,0.30
2023-01-13T12:23:56.697Z,0.40
2023-01-13T12:26:27.562Z,0.40
2023-01-13T12:28:59.752Z,0.53
2023-01-13T12:31:28.599Z,1.13
2023-01-13T12:34:05.506Z,1.50
2023-01-13T12:36:41.759Z,0.70
2023-01-13T12:39:19.876Z,1.88
2023-01-13T12:42:12.500Z,1.27
2023-01-13T12:45:20.899Z,3.80
2023-01-13T12:47:49.509Z,3.47
2023-01-13T12:50:42.959Z,1.52
2023-01-13T12:53:38.720Z,2.03
2023-01-13T12:56:30.525Z,0.90
2023-01-13T12:59:35.978Z,0.82
2023-01-13T13:02:27.235Z,0.60
2023-01-13T13:04:57.631Z,0.60
2023-01-13T13:07:35.280Z,1.60
2023-01-13T13:10:07.266Z,0.70
2023-01-13T13:13:11.642Z,0.70
2023-01-13T13:15:40.942Z,0.70
2023-01-13T13:18:27.264Z,0.57
2023-01-13T13:21:16.134Z,0.68
2023-01-13T13:24:05.649Z,0.47
2023-01-13T13:26:46.886Z,0.65
2023-01-13T13:29:42.343Z,0.70
2023-01-13T13:32:41.210Z,0.60
2023-01-13T13:35:32.192Z,1.30
2023-01-13T13:38:30.586Z,0.50
2023-01-13T13:41:17.726Z,0.28
2023-01-13T13:44:04.310Z,0.57
2023-01-13T13:46:50.610Z,0.40
2023-01-13T13:49:22.221Z,0.60
2023-01-13T13:51:56.058Z,1.70
2023-01-13T13:54:24.424Z,0.80
2023-01-13T13:56:53.117Z,0.80
2023-01-13T13:59:24.420Z,0.40
2023-01-13T14:02:02.156Z,0.40
2023-01-13T14:04:36.966Z,0.30
2023-01-13T14:07:18.347Z,0.40
2023-01-13T14:09:47.871Z,0.50
2023-01-13T14:12:19.888Z,1.63
2023-01-13T14:14:49.518Z,0.70
2023-01-13T14:17:22.483Z,0.90
2023-01-13T14:20:05.192Z,1.05
2023-01-13T14:22:33.944Z,0.60
2023-01-13T14:25:02.162Z,5.03
2023-01-13T14:27:31.105Z,4.78
2023-01-13T14:30:01.732Z,2.63
2023-01-13T14:32:35.925Z,1.08
2023-01-13T14:35:07.666Z,1.52
2023-01-13T14:37:41.691Z,3.60
2023-01-13T14:40:47.288Z,2.63
2023-01-13T14:43:17.654Z,1.97
2023-01-13T14:45:57.268Z,2.40
2023-01-13T14:48:33.453Z,2.17
2023-01-13T14:51:05.927Z,1.60
2023-01-13T14:53:43.257Z,1.60
2023-01-13T14:56:46.400Z,1.73
2023-01-13T14:59:37.671Z,2.10
2023-01-13T15:02:37.180Z,2.78
2023-01-13T15:05:38.397Z,3.60
2023-01-13T15:08:26.152Z,2.28
2023-01-13T15:11:00.051Z,2.30
2023-01-13T15:13:35.444Z,2.75
2023-01-13T15:16:07.061Z,2.45
2023-01-13T15:18:40.107Z,3.35
2023-01-13T15:21:08.542Z,6.20
2023-01-13T15:23:39.873Z,3.90
2023-01-13T15:26:18.736Z,2.70
2023-01-13T15:28:49.955Z,3.78
2023-01-13T15:31:17.904Z,4.57
2023-01-13T15:33:45.922Z,2.20
2023-01-13T15:36:28.650Z,4.60
2023-01-13T15:39:00.844Z,3.55
2023-01-13T15:41:46.629Z,3.63
2023-01-13T15:44:33.769Z,4.47
2023-01-13T15:47:04.183Z,2.20
2023-01-13T15:49:36.685Z,2.13
2023-01-13T15:52:07.651Z,2.65
2023-01-13T15:54:37.273Z,1.95
2023-01-13T15:57:05.460Z,1.25
2023-01-13T15:59:34.441Z,2.15
2023-01-13T16:02:02.444Z,1.10
2023-01-13T16:04:30.285Z,2.90
2023-01-13T16:06:58.294Z,2.45
2023-01-13T16:09:25.928Z,2.45
2023-01-13T16:11:55.210Z,1.13
2023-01-13T16:14:22.777Z,1.13
2023-01-13T16:16:51.876Z,0.80
2023-01-13T16:19:19.467Z,0.90
2023-01-13T16:21:47.468Z,0.93
2023-01-13T16:24:15.326Z,1.10
2023-01-13T16:26:43.174Z,2.33
2023-01-13T16:29:13.385Z,1.80
2023-01-13T16:31:41.369Z,1.80
2023-01-13T16:34:10.309Z,0.98
2023-01-13T16:36:38.529Z,1.20
2023-01-13T16:39:21.588Z,0.93
2023-01-13T16:41:49.532Z,1.58
2023-01-13T16:44:19.035Z,1.60
2023-01-13T16:46:47.843Z,1.60
2023-01-13T16:49:17.434Z,1.15
2023-01-13T16:51:45.391Z,2.00
2023-01-13T16:54:13.228Z,1.80
2023-01-13T16:56:41.375Z,2.22
2023-01-13T16:59:11.958Z,3.33
2023-01-13T17:01:43.713Z,2.58
2023-01-13T17:04:16.476Z,2.37
2023-01-13T17:06:52.460Z,1.73
2023-01-13T17:09:22.460Z,1.90
2023-01-13T17:11:50.526Z,0.98
2023-01-13T17:14:19.915Z,1.20
2023-01-13T17:16:49.131Z,1.20
2023-01-13T17:19:18.226Z,1.60
2023-01-13T17:21:47.202Z,0.85
2023-01-13T17:24:15.629Z,1.30
2023-01-13T17:26:47.324Z,1.23
2023-01-13T17:29:16.655Z,2.00
2023-01-13T17:31:44.683Z,1.30
2023-01-13T17:34:14.371Z,2.22
2023-01-13T17:36:43.541Z,1.10
2023-01-13T17:39:16.775Z,1.13
2023-01-13T17:41:45.173Z,1.03
2023-01-13T17:44:15.006Z,0.80
2023-01-13T17:46:43.363Z,1.20
2023-01-13T17:49:14.032Z,2.00
2023-01-13T17:51:42.421Z,1.58
2023-01-13T17:54:12.382Z,1.70
2023-01-13T17:56:40.911Z,0.90
2023-01-13T17:59:10.329Z,0.90
2023-01-13T18:01:39.760Z,0.70
2023-01-13T18:04:08.418Z,0.82
2023-01-13T18:06:37.339Z,1.40
2023-01-13T18:09:05.685Z,1.10
2023-01-13T18:11:33.325Z,1.58
2023-01-13T18:14:01.381Z,1.05
2023-01-13T18:16:32.165Z,1.02
2023-01-13T18:19:14.307Z,1.10
2023-01-13T18:22:01.353Z,2.05
2023-01-13T18:24:46.397Z,0.80
2023-01-13T18:27:22.960Z,1.10
2023-01-13T18:29:52.502Z,1.38
2023-01-13T18:32:21.182Z,1.90
2023-01-13T18:34:50.450Z,3.10
2023-01-13T18:37:23.436Z,4.18
2023-01-13T18:39:51.156Z,3.60
2023-01-13T18:42:36.654Z,2.10
2023-01-13T18:45:04.958Z,1.23
2023-01-13T18:47:33.760Z,0.80
2023-01-13T18:50:01.740Z,1.70
2023-01-13T18:52:31.090Z,1.02
2023-01-13T18:54:58.940Z,0.88
2023-01-13T18:57:26.921Z,1.47
2023-01-13T18:59:56.530Z,1.33
2023-01-13T19:02:26.475Z,1.00
2023-01-13T19:04:54.773Z,1.08
2023-01-13T19:07:26.050Z,2.40
2023-01-13T19:09:57.655Z,4.93
2023-01-13T19:12:27.735Z,2.22
2023-01-13T19:14:56.234Z,1.95
2023-01-13T19:17:28.587Z,1.75
2023-01-13T19:19:58.206Z,1.67
2023-01-13T19:22:30.392Z,1.83
2023-01-13T19:25:00.148Z,1.05
2023-01-13T19:27:28.716Z,2.45
2023-01-13T19:30:00.773Z,1.45
2023-01-13T19:32:30.909Z,2.40
2023-01-13T19:34:59.784Z,2.00
2023-01-13T19:37:30.628Z,2.95
2023-01-13T19:40:00.812Z,2.92
2023-01-13T19:42:46.758Z,2.65
2023-01-13T19:45:27.632Z,2.58
2023-01-13T19:47:55.949Z,1.30
2023-01-13T19:50:24.243Z,1.50
2023-01-13T19:52:52.107Z,1.30
2023-01-13T19:55:21.579Z,3.45
2023-01-13T19:57:49.513Z,1.77
2023-01-13T20:00:20.970Z,2.20
2023-01-13T20:02:52.153Z,1.75
2023-01-13T20:05:22.828Z,1.70
2023-01-13T20:07:51.387Z,1.05
2023-01-13T20:10:22.845Z,0.82
2023-01-13T20:12:50.735Z,0.83
2023-01-13T20:15:18.877Z,1.00
2023-01-13T20:17:46.960Z,0.70
2023-01-13T20:20:16.071Z,0.70
2023-01-13T20:22:44.332Z,0.45
2023-01-13T20:25:13.291Z,1.30
2023-01-13T20:27:42.338Z,0.68
2023-01-13T20:30:13.780Z,0.60
2023-01-13T20:32:41.961Z,0.85
2023-01-13T20:35:10.690Z,0.98
2023-01-13T20:37:40.580Z,0.80
2023-01-13T20:40:10.808Z,1.50
2023-01-13T20:42:45.188Z,1.40
2023-01-13T20:45:20.788Z,1.40
2023-01-13T20:47:48.972Z,1.20
2023-01-13T20:50:17.844Z,0.70
2023-01-13T20:52:46.457Z,1.23
2023-01-13T20:55:14.952Z,0.98
2023-01-13T20:57:42.884Z,0.47
2023-01-13T21:00:11.913Z,1.10
2023-01-13T21:02:44.431Z,0.70
2023-01-13T21:05:12.340Z,1.00
2023-01-13T21:07:40.495Z,1.60
2023-01-13T21:10:11.512Z,1.73
2023-01-13T21:12:56.648Z,0.60
2023-01-13T21:15:25.948Z,0.43
2023-01-13T21:18:12.525Z,0.70
2023-01-13T21:20:40.712Z,0.80
2023-01-13T21:23:10.733Z,0.65
2023-01-13T21:25:40.616Z,0.50
2023-01-13T21:28:11.758Z,0.30
2023-01-13T21:30:41.028Z,0.40
2023-01-13T21:33:15.205Z,0.25
2023-01-13T21:35:43.601Z,0.45
2023-01-13T21:38:12.337Z,0.30
2023-01-13T21:40:40.902Z,0.50
2023-01-13T21:43:30.845Z,0.55
2023-01-13T21:46:16.280Z,0.63
2023-01-13T21:48:46.345Z,0.80
2023-01-13T21:51:14.507Z,0.52
2023-01-13T21:53:42.384Z,0.77
2023-01-13T21:56:10.511Z,0.73
2023-01-13T21:58:40.106Z,0.70
2023-01-13T22:01:10.070Z,0.82
2023-01-13T22:03:54.266Z,0.70
2023-01-13T22:06:23.825Z,0.70
2023-01-13T22:08:52.263Z,0.40
2023-01-13T22:11:20.124Z,0.35
2023-01-13T22:14:05.889Z,0.50
2023-01-13T22:16:39.656Z,0.40
2023-01-13T22:19:09.485Z,0.80
2023-01-13T22:21:38.675Z,0.55
2023-01-13T22:24:07.992Z,0.60
2023-01-13T22:26:36.317Z,0.40
2023-01-13T22:29:05.105Z,0.50
2023-01-13T22:31:33.313Z,0.30
2023-01-13T22:34:01.621Z,0.68
2023-01-13T22:36:30.419Z,0.47
2023-01-13T22:39:00.814Z,0.60
2023-01-13T22:41:31.675Z,0.30
2023-01-13T22:43:59.688Z,0.40
2023-01-13T22:46:27.727Z,0.43
2023-01-13T22:48:56.372Z,0.60
2023-01-13T22:51:24.086Z,0.70
2023-01-13T22:53:52.706Z,0.50
2023-01-13T22:56:24.842Z,0.70
2023-01-13T22:58:56.698Z,0.45
2023-01-13T23:01:25.965Z,0.47
2023-01-13T23:03:54.535Z,0.47
2023-01-13T23:06:24.617Z,1.05
2023-01-13T23:08:53.287Z,0.60
2023-01-13T23:11:25.081Z,0.38
2023-01-13T23:13:59.967Z,0.47
2023-01-13T23:16:29.498Z,0.77
2023-01-13T23:18:58.027Z,0.75
2023-01-13T23:21:27.935Z,0.73
2023-01-13T23:23:58.447Z,0.70
2023-01-13T23:26:28.965Z,1.42
2023-01-13T23:29:00.525Z,0.60
2023-01-13T23:31:28.473Z,0.60
2023-01-13T23:33:56.393Z,0.53
2023-01-13T23:36:26.417Z,0.63
2023-01-13T23:38:54.859Z,0.40
2023-01-13T23:41:24.728Z,1.77
2023-01-13T23:43:55.089Z,0.73
2023-01-13T23:46:23.754Z,0.93
2023-01-13T23:48:52.425Z,0.60
2023-01-13T23:51:22.255Z,0.70
2023-01-13T23:53:51.325Z,1.20
2023-01-13T23:56:20.942Z,0.40
2023-01-13T23:58:49.372Z,0.50
